Bateman, Wisconsin
Current Conditions -  °F | °C
As of 4:56 PM on Thursday 23 Oct 2014 (Local Time) from KEAU Reporting Station
Haze Haze  
Wind Chill: 52°   Ceiling: 400
Heat Index: 52°   Visibility: 3mi
Dew Point: 50°   Wind: 5mph
Humidity: 93%   Direction: 180°S
Pressure: 29.99"   Gusts: NA
Location:  44.9743°N, 91.4379°W
Report Text: KEAU 232156Z 18004KT 3SM BR BKN004 OVC008 11/10 A2999 RMK AO2 CIG 003V007 SLP159 T01110100
Loading
Personal Weather Stations






























Interactive Weather Map
Tropical Storm Tracking
New forecast layout! Learn more

10-Day Weather Forecast

Advertisements
Track Severe Weather on mobile